Time;durP1;ratioP1;P1;durP2;ratioP2;P2;SDS_P1;SDS_P2;PMS_P1;PMS_P2;Temp;Humidity;BMP_temperature;BMP_pressure;BME280_temperature;BME280_humidity;BME280_pressure;Samples;Min_cycle;Max_cycle;Signal;HPM_P1;HPM_P2
2022/06/04 06:18:21;;;;;;;4.95;3.95;;;;;;;;;;10537367;28;20036;-84
2022/06/04 06:23:22;;;;;;;8.73;4.43;;;;;;;;;;10536691;28;20135;-84
2022/06/04 06:28:25;;;;;;;4.65;3.40;;;;;;;;;;10534942;28;20021;-84
2022/06/04 06:33:35;;;;;;;4.65;3.30;;;;;;;;;;10535455;28;20491;-84
2022/06/04 06:38:44;;;;;;;4.10;3.70;;;;;;;;;;10535426;28;20387;-84
2022/06/04 06:43:51;;;;;;;4.40;3.70;;;;;;;;;;10543704;28;20048;-83
2022/06/04 06:54:51;;;;;;;4.65;3.22;;;;;;;;;;10541409;28;20059;-83
2022/06/04 07:00:12;;;;;;;4.80;2.83;;;;;;;;;;10546281;28;20035;-82
2022/06/04 07:05:13;;;;;;;4.03;3.20;;;;;;;;;;10543399;28;20051;-83
2022/06/04 07:10:15;;;;;;;6.38;3.13;;;;;;;;;;10531551;28;20504;-82
2022/06/04 07:15:16;;;;;;;3.35;2.30;;;;;;;;;;10517177;28;20060;-81
2022/06/04 07:20:18;;;;;;;4.95;3.45;;;;;;;;;;10515782;28;20507;-82
2022/06/04 07:25:21;;;;;;;5.78;3.00;;;;;;;;;;10505526;28;20061;-78
2022/06/04 07:30:22;;;;;;;3.88;2.92;;;;;;;;;;10504486;28;20119;-78
2022/06/04 07:35:23;;;;;;;5.03;3.45;;;;;;;;;;10505101;28;20123;-78
2022/06/04 07:40:25;;;;;;;5.65;3.80;;;;;;;;;;10506848;28;20030;-79
2022/06/04 07:45:26;;;;;;;5.07;3.80;;;;;;;;;;10521885;28;20051;-78
2022/06/04 07:50:27;;;;;;;4.15;2.88;;;;;;;;;;10508181;28;20131;-79
2022/06/04 07:55:28;;;;;;;5.80;4.55;;;;;;;;;;10507694;28;20067;-79
2022/06/04 08:00:30;;;;;;;3.72;2.25;;;;;;;;;;10505076;28;20032;-79
2022/06/04 08:05:31;;;;;;;3.67;2.50;;;;;;;;;;10505171;28;20108;-79
2022/06/04 08:10:32;;;;;;;6.47;2.92;;;;;;;;;;10503637;28;20475;-78
2022/06/04 08:15:33;;;;;;;4.40;3.40;;;;;;;;;;10504929;28;20060;-79
2022/06/04 08:20:34;;;;;;;4.55;4.15;;;;;;;;;;10504893;28;20109;-79
2022/06/04 08:25:42;;;;;;;4.68;2.97;;;;;;;;;;10505284;28;20115;-80
2022/06/04 08:30:44;;;;;;;4.70;2.80;;;;;;;;;;10504441;28;20036;-80
2022/06/04 08:35:45;;;;;;;5.72;4.28;;;;;;;;;;10505762;28;20020;-81
2022/06/04 08:40:48;;;;;;;4.90;3.72;;;;;;;;;;10505604;28;20115;-79
2022/06/04 08:45:49;;;;;;;5.35;2.90;;;;;;;;;;10506518;28;20484;-80
2022/06/04 08:50:50;;;;;;;6.25;4.45;;;;;;;;;;10516227;28;20098;-83
2022/06/04 09:01:25;;;;;;;5.03;3.40;;;;;;;;;;10511524;28;20040;-82
2022/06/04 09:06:26;;;;;;;4.53;3.70;;;;;;;;;;10510266;28;20073;-80
2022/06/04 09:11:30;;;;;;;5.85;3.17;;;;;;;;;;10504742;28;20064;-80
2022/06/04 09:16:37;;;;;;;5.22;3.00;;;;;;;;;;10507667;28;20024;-83
2022/06/04 09:21:38;;;;;;;4.70;3.78;;;;;;;;;;10509568;28;20050;-84
2022/06/04 09:26:48;;;;;;;3.90;3.42;;;;;;;;;;10509848;28;20036;-84
2022/06/04 09:31:58;;;;;;;4.20;3.50;;;;;;;;;;10510220;28;20059;-85
2022/06/04 09:37:00;;;;;;;4.70;2.55;;;;;;;;;;10511288;28;20135;-83
2022/06/04 09:42:13;;;;;;;5.90;3.60;;;;;;;;;;10521716;28;20028;-81
2022/06/04 09:47:35;;;;;;;3.72;3.03;;;;;;;;;;10510279;28;20029;-82
2022/06/04 09:52:37;;;;;;;6.07;3.50;;;;;;;;;;10510807;28;20672;-83
2022/06/04 09:57:38;;;;;;;6.05;3.95;;;;;;;;;;10508545;28;20369;-82
2022/06/04 10:02:39;;;;;;;5.32;4.22;;;;;;;;;;10513111;28;20060;-81
2022/06/04 10:07:40;;;;;;;4.80;4.10;;;;;;;;;;10507929;28;20048;-82
2022/06/04 10:18:23;;;;;;;6.57;4.53;;;;;;;;;;10510058;28;20029;-80
2022/06/04 10:23:25;;;;;;;7.13;4.47;;;;;;;;;;10502285;28;20033;-79
2022/06/04 10:28:29;;;;;;;6.70;4.85;;;;;;;;;;10502381;28;20484;-80
2022/06/04 10:33:43;;;;;;;5.55;4.70;;;;;;;;;;10506407;28;20032;-79
2022/06/04 10:38:44;;;;;;;5.20;4.60;;;;;;;;;;10503953;28;20032;-80
2022/06/04 10:44:04;;;;;;;5.00;4.47;;;;;;;;;;10504502;28;20029;-79
2022/06/04 10:49:29;;;;;;;5.18;3.60;;;;;;;;;;10510721;28;20514;-79
2022/06/04 10:54:39;;;;;;;6.45;4.05;;;;;;;;;;10515033;28;20525;-79
2022/06/04 10:59:59;;;;;;;4.95;4.22;;;;;;;;;;10510032;28;20020;-80
2022/06/04 11:05:03;;;;;;;6.75;5.10;;;;;;;;;;10506806;28;20051;-80
2022/06/04 11:10:06;;;;;;;6.18;5.57;;;;;;;;;;10509606;28;20036;-79
2022/06/04 11:15:11;;;;;;;5.50;4.43;;;;;;;;;;10534828;28;20035;-79
2022/06/04 11:20:22;;;;;;;20.38;17.98;;;;;;;;;;10550572;28;20092;-80
2022/06/04 11:25:32;;;;;;;5.63;5.13;;;;;;;;;;10529089;28;20457;-80
2022/06/04 11:30:54;;;;;;;7.50;4.25;;;;;;;;;;10509547;28;20460;-79
2022/06/04 11:35:55;;;;;;;5.63;5.03;;;;;;;;;;10512950;28;20025;-80
2022/06/04 11:41:05;;;;;;;7.93;4.70;;;;;;;;;;10513174;28;20157;-78
2022/06/04 11:46:06;;;;;;;;;;;;;;;;;;10507314;28;20028;-79
2022/06/04 11:51:25;;;;;;;6.07;4.40;;;;;;;;;;10511696;28;19912;-83
2022/06/04 11:56:35;;;;;;;6.37;4.97;;;;;;;;;;10521345;28;20023;-81
2022/06/04 12:01:37;;;;;;;6.55;4.93;;;;;;;;;;10550353;28;20326;-87
2022/06/04 12:06:42;;;;;;;6.30;5.47;;;;;;;;;;10550652;28;20038;-85
2022/06/04 12:11:49;;;;;;;8.75;5.70;;;;;;;;;;10550093;28;20044;-86
2022/06/04 12:16:50;;;;;;;4.55;4.15;;;;;;;;;;10545818;28;20031;-83
2022/06/04 12:27:20;;;;;;;15.63;13.05;;;;;;;;;;10950979;22;20045;-83
2022/06/04 12:32:31;;;;;;;4.97;4.45;;;;;;;;;;10537311;28;20019;-88
2022/06/04 12:37:38;;;;;;;5.05;4.57;;;;;;;;;;10543216;22;20052;-83
2022/06/04 12:42:41;;;;;;;4.55;4.15;;;;;;;;;;10507792;28;20023;-85
2022/06/04 12:47:42;;;;;;;5.95;5.20;;;;;;;;;;10501782;28;20064;-83
2022/06/04 12:52:51;;;;;;;17.52;12.60;;;;;;;;;;10500169;28;20032;-83
2022/06/04 12:57:58;;;;;;;6.68;5.35;;;;;;;;;;10481441;28;20032;-83
2022/06/04 13:03:13;;;;;;;5.93;5.38;;;;;;;;;;10471839;28;20056;-84
2022/06/04 13:08:20;;;;;;;6.13;4.85;;;;;;;;;;10468541;28;20120;-84
2022/06/04 13:13:21;;;;;;;8.77;7.88;;;;;;;;;;10474982;28;20120;-83
2022/06/04 13:18:25;;;;;;;4.57;4.18;;;;;;;;;;10473857;28;20051;-83
2022/06/04 13:23:30;;;;;;;4.22;3.85;;;;;;;;;;10472394;28;20047;-84
2022/06/04 13:28:37;;;;;;;4.28;3.83;;;;;;;;;;10470232;28;20106;-83
2022/06/04 13:33:38;;;;;;;5.97;4.43;;;;;;;;;;10484892;28;20025;-85
2022/06/04 13:38:40;;;;;;;4.75;3.97;;;;;;;;;;10494953;28;20057;-83
2022/06/04 13:43:43;;;;;;;4.60;4.20;;;;;;;;;;10494275;28;20033;-84
2022/06/04 13:49:10;;;;;;;7.50;6.80;;;;;;;;;;10491258;28;20021;-84
2022/06/04 13:54:21;;;;;;;4.25;3.60;;;;;;;;;;10482900;28;20033;-84
2022/06/04 13:59:27;;;;;;;4.70;3.80;;;;;;;;;;10479712;28;20060;-83
2022/06/04 14:09:56;;;;;;;7.25;3.90;;;;;;;;;;10447873;28;20037;-84
2022/06/04 14:15:13;;;;;;;5.72;3.22;;;;;;;;;;10463706;28;20063;-84
2022/06/04 14:20:22;;;;;;;3.95;3.50;;;;;;;;;;10465961;28;20040;-84
2022/06/04 14:25:35;;;;;;;3.42;2.72;;;;;;;;;;10470875;28;20040;-85
2022/06/04 14:31:03;;;;;;;3.70;3.17;;;;;;;;;;10470939;28;20029;-84
2022/06/04 14:36:05;;;;;;;5.78;3.40;;;;;;;;;;10443096;28;20471;-84
2022/06/04 14:41:12;;;;;;;4.05;2.85;;;;;;;;;;10471666;28;20480;-85
2022/06/04 14:46:25;;;;;;;4.15;3.30;;;;;;;;;;10473534;28;20060;-85
2022/06/04 14:51:45;;;;;;;3.80;3.13;;;;;;;;;;10471930;28;20534;-84
2022/06/04 14:56:52;;;;;;;6.07;4.00;;;;;;;;;;10469018;28;20108;-84
2022/06/04 15:02:12;;;;;;;4.05;3.20;;;;;;;;;;10475237;28;20033;-84
2022/06/04 15:07:27;;;;;;;4.20;3.17;;;;;;;;;;10471922;28;20021;-85
2022/06/04 15:12:47;;;;;;;4.50;4.10;;;;;;;;;;10472194;28;20025;-85
2022/06/04 15:18:08;;;;;;;4.10;3.40;;;;;;;;;;10498787;22;20056;-82
2022/06/04 15:23:33;;;;;;;3.42;3.13;;;;;;;;;;10475420;28;20036;-82
2022/06/04 15:34:59;;;;;;;4.18;3.78;;;;;;;;;;10475758;28;20028;-83
2022/06/04 15:40:42;;;;;;;10.10;9.13;;;;;;;;;;10476154;28;20089;-82
2022/06/04 15:57:44;;;;;;;3.95;3.20;;;;;;;;;;10482953;28;20025;-81
2022/06/04 16:26:09;;;;;;;4.03;3.63;;;;;;;;;;10473382;28;20369;-82
2022/06/04 16:37:13;;;;;;;5.43;3.97;;;;;;;;;;10473851;28;20024;-83
2022/06/04 16:42:43;;;;;;;3.50;3.20;;;;;;;;;;10472123;28;20133;-83
2022/06/04 16:48:29;;;;;;;4.05;3.35;;;;;;;;;;10438044;28;20121;-82
2022/06/04 16:54:11;;;;;;;5.03;3.35;;;;;;;;;;10471933;28;20021;-83
2022/06/04 17:04:59;;;;;;;4.00;3.50;;;;;;;;;;10470181;28;20041;-82
2022/06/04 17:10:45;;;;;;;4.95;3.67;;;;;;;;;;10417053;28;20524;-83
2022/06/04 17:16:25;;;;;;;9.93;6.72;;;;;;;;;;10426462;28;20060;-83
2022/06/04 17:22:06;;;;;;;3.67;3.38;;;;;;;;;;10386057;28;20453;-82
2022/06/04 17:27:34;;;;;;;5.65;3.70;;;;;;;;;;10471331;28;20021;-82
2022/06/04 17:32:36;;;;;;;3.67;3.30;;;;;;;;;;10435535;28;20136;-82
2022/06/04 17:37:37;;;;;;;6.60;3.15;;;;;;;;;;10470079;28;20033;-83
2022/06/04 17:42:39;;;;;;;4.00;3.60;;;;;;;;;;10470823;28;20040;-83
2022/06/04 17:47:40;;;;;;;4.53;3.50;;;;;;;;;;10475921;28;20544;-83
2022/06/04 17:52:41;;;;;;;3.83;3.10;;;;;;;;;;10494673;28;20032;-83
2022/06/04 17:57:42;;;;;;;4.10;3.30;;;;;;;;;;10473875;28;20025;-83
2022/06/04 18:02:45;;;;;;;4.28;3.80;;;;;;;;;;10473573;28;20124;-83
2022/06/04 18:07:46;;;;;;;3.90;3.30;;;;;;;;;;10473854;28;20025;-83
2022/06/04 18:12:47;;;;;;;3.78;3.33;;;;;;;;;;10470451;28;20028;-83
2022/06/04 18:17:48;;;;;;;4.03;3.10;;;;;;;;;;10484942;28;20100;-83
2022/06/04 18:22:49;;;;;;;4.72;3.50;;;;;;;;;;10485192;28;20052;-83
2022/06/04 18:27:50;;;;;;;4.78;3.33;;;;;;;;;;10464881;28;20094;-82
2022/06/04 18:32:53;;;;;;;3.67;3.38;;;;;;;;;;10498400;28;20025;-82
2022/06/04 18:37:54;;;;;;;3.53;3.22;;;;;;;;;;10501186;28;20104;-82
2022/06/04 18:59:02;;;;;;;3.65;3.00;;;;;;;;;;10519192;28;20037;-82
2022/06/04 19:04:04;;;;;;;4.38;2.90;;;;;;;;;;10501822;28;20024;-83
2022/06/04 19:09:06;;;;;;;4.10;3.70;;;;;;;;;;10506204;28;20391;-83
2022/06/04 19:14:07;;;;;;;4.47;3.30;;;;;;;;;;10504900;28;20055;-83
2022/06/04 19:19:10;;;;;;;3.72;3.30;;;;;;;;;;10507843;28;20052;-83
